sensor_id;sensor_type;location;lat;lon;timestamp;temperature;humidity
16102;DHT22;56411;52.964;10.540;2022-08-14T00:00:16;21.10;99.90
16102;DHT22;56411;52.964;10.540;2022-08-14T00:02:43;21.10;99.90
16102;DHT22;56411;52.964;10.540;2022-08-14T00:05:13;21.20;99.90
16102;DHT22;56411;52.964;10.540;2022-08-14T00:07:40;21.20;99.90
16102;DHT22;56411;52.964;10.540;2022-08-14T00:10:10;21.20;99.90
16102;DHT22;56411;52.964;10.540;2022-08-14T00:12:41;21.20;99.90
16102;DHT22;56411;52.964;10.540;2022-08-14T00:15:11;21.10;99.90
16102;DHT22;56411;52.964;10.540;2022-08-14T00:17:39;21.10;99.90
16102;DHT22;56411;52.964;10.540;2022-08-14T00:20:07;21.00;99.90
16102;DHT22;56411;52.964;10.540;2022-08-14T00:22:34;21.00;99.90
16102;DHT22;56411;52.964;10.540;2022-08-14T00:25:01;21.00;99.90
16102;DHT22;56411;52.964;10.540;2022-08-14T00:27:28;21.00;99.90
16102;DHT22;56411;52.964;10.540;2022-08-14T00:29:56;20.90;99.90
16102;DHT22;56411;52.964;10.540;2022-08-14T00:32:23;21.00;99.90
16102;DHT22;56411;52.964;10.540;2022-08-14T00:34:50;20.90;99.90
16102;DHT22;56411;52.964;10.540;2022-08-14T00:37:18;20.90;99.90
16102;DHT22;56411;52.964;10.540;2022-08-14T00:39:44;20.90;99.90
16102;DHT22;56411;52.964;10.540;2022-08-14T00:42:11;20.90;99.90
16102;DHT22;56411;52.964;10.540;2022-08-14T00:44:38;20.80;99.90
16102;DHT22;56411;52.964;10.540;2022-08-14T00:47:07;20.80;99.90
16102;DHT22;56411;52.964;10.540;2022-08-14T00:49:34;20.80;99.90
16102;DHT22;56411;52.964;10.540;2022-08-14T00:52:02;20.80;99.90
16102;DHT22;56411;52.964;10.540;2022-08-14T00:54:30;20.80;99.90
16102;DHT22;56411;52.964;10.540;2022-08-14T00:56:57;20.90;99.90
16102;DHT22;56411;52.964;10.540;2022-08-14T00:59:25;20.80;99.90
16102;DHT22;56411;52.964;10.540;2022-08-14T01:01:53;20.80;99.90
16102;DHT22;56411;52.964;10.540;2022-08-14T01:04:24;20.70;99.90
16102;DHT22;56411;52.964;10.540;2022-08-14T01:06:51;20.70;99.90
16102;DHT22;56411;52.964;10.540;2022-08-14T01:09:19;20.60;99.90
16102;DHT22;56411;52.964;10.540;2022-08-14T01:11:47;20.60;99.90
16102;DHT22;56411;52.964;10.540;2022-08-14T01:14:15;20.60;99.90
16102;DHT22;56411;52.964;10.540;2022-08-14T01:16:42;20.60;99.90
16102;DHT22;56411;52.964;10.540;2022-08-14T01:19:09;20.50;99.90
16102;DHT22;56411;52.964;10.540;2022-08-14T01:21:54;20.50;99.90
16102;DHT22;56411;52.964;10.540;2022-08-14T01:24:22;20.50;99.90
16102;DHT22;56411;52.964;10.540;2022-08-14T01:26:49;20.50;99.90
16102;DHT22;56411;52.964;10.540;2022-08-14T01:29:18;20.50;99.90
16102;DHT22;56411;52.964;10.540;2022-08-14T01:31:46;20.50;99.90
16102;DHT22;56411;52.964;10.540;2022-08-14T01:34:13;20.50;99.90
16102;DHT22;56411;52.964;10.540;2022-08-14T01:36:40;20.50;99.90
16102;DHT22;56411;52.964;10.540;2022-08-14T01:39:11;20.40;99.90
16102;DHT22;56411;52.964;10.540;2022-08-14T01:41:39;20.30;99.90
16102;DHT22;56411;52.964;10.540;2022-08-14T01:44:09;20.30;99.90
16102;DHT22;56411;52.964;10.540;2022-08-14T01:46:38;20.30;99.90
16102;DHT22;56411;52.964;10.540;2022-08-14T01:49:08;20.20;99.90
16102;DHT22;56411;52.964;10.540;2022-08-14T01:51:37;20.20;99.90
16102;DHT22;56411;52.964;10.540;2022-08-14T01:54:07;20.10;99.90
16102;DHT22;56411;52.964;10.540;2022-08-14T01:56:37;20.10;99.90
16102;DHT22;56411;52.964;10.540;2022-08-14T01:59:07;20.10;99.90
16102;DHT22;56411;52.964;10.540;2022-08-14T02:01:34;20.10;99.90
16102;DHT22;56411;52.964;10.540;2022-08-14T02:04:05;20.00;99.90
16102;DHT22;56411;52.964;10.540;2022-08-14T02:06:32;20.00;99.90
16102;DHT22;56411;52.964;10.540;2022-08-14T02:08:59;19.90;99.90
16102;DHT22;56411;52.964;10.540;2022-08-14T02:11:26;19.90;99.90
16102;DHT22;56411;52.964;10.540;2022-08-14T02:13:57;19.90;99.90
16102;DHT22;56411;52.964;10.540;2022-08-14T02:16:27;19.80;99.90
16102;DHT22;56411;52.964;10.540;2022-08-14T02:18:56;19.80;99.90
16102;DHT22;56411;52.964;10.540;2022-08-14T02:21:24;19.70;99.90
16102;DHT22;56411;52.964;10.540;2022-08-14T02:23:52;19.60;99.90
16102;DHT22;56411;52.964;10.540;2022-08-14T02:26:23;19.60;99.90
16102;DHT22;56411;52.964;10.540;2022-08-14T02:28:53;19.50;99.90
16102;DHT22;56411;52.964;10.540;2022-08-14T02:31:21;19.50;99.90
16102;DHT22;56411;52.964;10.540;2022-08-14T02:33:48;19.40;99.90
16102;DHT22;56411;52.964;10.540;2022-08-14T02:36:15;19.40;99.90
16102;DHT22;56411;52.964;10.540;2022-08-14T02:38:42;19.30;99.90
16102;DHT22;56411;52.964;10.540;2022-08-14T02:41:11;19.30;99.90
16102;DHT22;56411;52.964;10.540;2022-08-14T02:43:39;19.30;99.90
16102;DHT22;56411;52.964;10.540;2022-08-14T02:46:08;19.30;99.90
16102;DHT22;56411;52.964;10.540;2022-08-14T02:48:39;19.30;99.90
16102;DHT22;56411;52.964;10.540;2022-08-14T02:51:08;19.20;99.90
16102;DHT22;56411;52.964;10.540;2022-08-14T02:53:37;19.20;99.90
16102;DHT22;56411;52.964;10.540;2022-08-14T02:56:07;19.20;99.90
16102;DHT22;56411;52.964;10.540;2022-08-14T02:58:37;19.10;99.90
16102;DHT22;56411;52.964;10.540;2022-08-14T03:01:05;19.10;99.90
16102;DHT22;56411;52.964;10.540;2022-08-14T03:03:33;19.00;99.90
16102;DHT22;56411;52.964;10.540;2022-08-14T03:06:04;19.00;99.90
16102;DHT22;56411;52.964;10.540;2022-08-14T03:08:31;19.00;99.90
16102;DHT22;56411;52.964;10.540;2022-08-14T03:10:59;19.00;99.90
16102;DHT22;56411;52.964;10.540;2022-08-14T03:13:32;19.00;99.90
16102;DHT22;56411;52.964;10.540;2022-08-14T03:16:00;19.00;99.90
16102;DHT22;56411;52.964;10.540;2022-08-14T03:18:28;19.00;99.90
16102;DHT22;56411;52.964;10.540;2022-08-14T03:20:55;18.90;99.90
16102;DHT22;56411;52.964;10.540;2022-08-14T03:23:23;18.90;99.90
16102;DHT22;56411;52.964;10.540;2022-08-14T03:25:50;18.90;99.90
16102;DHT22;56411;52.964;10.540;2022-08-14T03:28:17;18.90;99.90
16102;DHT22;56411;52.964;10.540;2022-08-14T03:30:44;18.90;99.90
16102;DHT22;56411;52.964;10.540;2022-08-14T03:33:11;18.90;99.90
16102;DHT22;56411;52.964;10.540;2022-08-14T03:35:39;18.90;99.90
16102;DHT22;56411;52.964;10.540;2022-08-14T03:38:09;18.90;99.90
16102;DHT22;56411;52.964;10.540;2022-08-14T03:40:39;18.90;99.90
16102;DHT22;56411;52.964;10.540;2022-08-14T03:43:06;18.90;99.90
16102;DHT22;56411;52.964;10.540;2022-08-14T03:45:34;18.90;99.90
16102;DHT22;56411;52.964;10.540;2022-08-14T03:48:03;18.90;99.90
16102;DHT22;56411;52.964;10.540;2022-08-14T03:50:42;18.90;99.90
16102;DHT22;56411;52.964;10.540;2022-08-14T03:53:10;18.90;99.90
16102;DHT22;56411;52.964;10.540;2022-08-14T03:55:39;18.90;99.90
16102;DHT22;56411;52.964;10.540;2022-08-14T03:58:07;18.90;99.90
16102;DHT22;56411;52.964;10.540;2022-08-14T04:00:35;18.90;99.90
16102;DHT22;56411;52.964;10.540;2022-08-14T04:03:03;18.90;99.90
16102;DHT22;56411;52.964;10.540;2022-08-14T04:05:31;19.00;99.90
16102;DHT22;56411;52.964;10.540;2022-08-14T04:07:58;19.00;99.90
16102;DHT22;56411;52.964;10.540;2022-08-14T04:10:26;18.90;99.90
16102;DHT22;56411;52.964;10.540;2022-08-14T04:12:54;19.00;99.90
16102;DHT22;56411;52.964;10.540;2022-08-14T04:15:24;19.00;99.90
16102;DHT22;56411;52.964;10.540;2022-08-14T04:17:51;19.00;99.90
16102;DHT22;56411;52.964;10.540;2022-08-14T04:20:18;18.90;99.90
16102;DHT22;56411;52.964;10.540;2022-08-14T04:22:45;18.90;99.90
16102;DHT22;56411;52.964;10.540;2022-08-14T04:25:15;18.90;99.90
16102;DHT22;56411;52.964;10.540;2022-08-14T04:27:43;18.90;99.90
16102;DHT22;56411;52.964;10.540;2022-08-14T04:30:12;18.90;99.90
16102;DHT22;56411;52.964;10.540;2022-08-14T04:32:39;18.90;99.90
16102;DHT22;56411;52.964;10.540;2022-08-14T04:35:06;19.00;99.90
16102;DHT22;56411;52.964;10.540;2022-08-14T04:37:34;19.00;99.90
16102;DHT22;56411;52.964;10.540;2022-08-14T04:40:18;19.00;99.90
16102;DHT22;56411;52.964;10.540;2022-08-14T04:42:59;19.00;99.90
16102;DHT22;56411;52.964;10.540;2022-08-14T04:45:44;19.00;99.90
16102;DHT22;56411;52.964;10.540;2022-08-14T04:48:14;19.00;99.90
16102;DHT22;56411;52.964;10.540;2022-08-14T04:50:43;19.00;99.90
16102;DHT22;56411;52.964;10.540;2022-08-14T04:53:12;19.00;99.90
16102;DHT22;56411;52.964;10.540;2022-08-14T04:55:41;19.00;99.90
16102;DHT22;56411;52.964;10.540;2022-08-14T04:58:09;19.00;99.90
16102;DHT22;56411;52.964;10.540;2022-08-14T05:00:36;19.00;99.90
16102;DHT22;56411;52.964;10.540;2022-08-14T05:03:06;19.10;99.90
16102;DHT22;56411;52.964;10.540;2022-08-14T05:05:33;19.10;99.90
16102;DHT22;56411;52.964;10.540;2022-08-14T05:08:08;19.10;99.90
16102;DHT22;56411;52.964;10.540;2022-08-14T05:10:39;19.10;99.90
16102;DHT22;56411;52.964;10.540;2022-08-14T05:13:06;19.10;99.90
16102;DHT22;56411;52.964;10.540;2022-08-14T05:15:34;19.20;99.90
16102;DHT22;56411;52.964;10.540;2022-08-14T05:18:03;19.20;99.90
16102;DHT22;56411;52.964;10.540;2022-08-14T05:20:32;19.30;99.90
16102;DHT22;56411;52.964;10.540;2022-08-14T05:22:59;19.30;99.90
16102;DHT22;56411;52.964;10.540;2022-08-14T05:25:26;19.40;99.90
16102;DHT22;56411;52.964;10.540;2022-08-14T05:27:53;19.50;99.90
16102;DHT22;56411;52.964;10.540;2022-08-14T05:30:25;19.50;99.90
16102;DHT22;56411;52.964;10.540;2022-08-14T05:32:52;19.60;99.90
16102;DHT22;56411;52.964;10.540;2022-08-14T05:35:19;19.70;99.90
16102;DHT22;56411;52.964;10.540;2022-08-14T05:37:47;19.70;99.90
16102;DHT22;56411;52.964;10.540;2022-08-14T05:40:15;19.80;99.90
16102;DHT22;56411;52.964;10.540;2022-08-14T05:42:42;19.90;99.90
16102;DHT22;56411;52.964;10.540;2022-08-14T05:45:09;19.90;99.90
16102;DHT22;56411;52.964;10.540;2022-08-14T05:47:39;20.00;99.90
16102;DHT22;56411;52.964;10.540;2022-08-14T05:50:08;20.00;99.90
16102;DHT22;56411;52.964;10.540;2022-08-14T05:52:35;20.10;99.90
16102;DHT22;56411;52.964;10.540;2022-08-14T05:55:05;20.10;99.90
16102;DHT22;56411;52.964;10.540;2022-08-14T05:57:32;20.20;99.90
16102;DHT22;56411;52.964;10.540;2022-08-14T06:00:01;20.30;99.90
16102;DHT22;56411;52.964;10.540;2022-08-14T06:02:28;20.40;99.90
16102;DHT22;56411;52.964;10.540;2022-08-14T06:04:57;20.50;99.90
16102;DHT22;56411;52.964;10.540;2022-08-14T06:07:26;20.50;99.90
16102;DHT22;56411;52.964;10.540;2022-08-14T06:09:53;20.60;99.90
16102;DHT22;56411;52.964;10.540;2022-08-14T06:12:21;20.60;99.90
16102;DHT22;56411;52.964;10.540;2022-08-14T06:14:48;20.70;99.90
16102;DHT22;56411;52.964;10.540;2022-08-14T06:17:15;20.70;99.90
16102;DHT22;56411;52.964;10.540;2022-08-14T06:19:42;20.70;99.90
16102;DHT22;56411;52.964;10.540;2022-08-14T06:22:09;20.80;99.90
16102;DHT22;56411;52.964;10.540;2022-08-14T06:24:36;20.80;99.90
16102;DHT22;56411;52.964;10.540;2022-08-14T06:27:03;20.90;99.90
16102;DHT22;56411;52.964;10.540;2022-08-14T06:29:32;20.90;99.90
16102;DHT22;56411;52.964;10.540;2022-08-14T06:31:59;20.90;99.90
16102;DHT22;56411;52.964;10.540;2022-08-14T06:34:26;21.00;99.90
16102;DHT22;56411;52.964;10.540;2022-08-14T06:36:53;21.00;99.90
16102;DHT22;56411;52.964;10.540;2022-08-14T06:39:21;21.00;99.90
16102;DHT22;56411;52.964;10.540;2022-08-14T06:41:48;21.10;99.90
16102;DHT22;56411;52.964;10.540;2022-08-14T06:44:15;21.20;99.90
16102;DHT22;56411;52.964;10.540;2022-08-14T06:46:43;21.20;99.90
16102;DHT22;56411;52.964;10.540;2022-08-14T06:49:10;21.30;99.90
16102;DHT22;56411;52.964;10.540;2022-08-14T06:51:37;21.40;99.90
16102;DHT22;56411;52.964;10.540;2022-08-14T06:54:06;21.40;99.90
16102;DHT22;56411;52.964;10.540;2022-08-14T06:56:33;21.50;99.90
16102;DHT22;56411;52.964;10.540;2022-08-14T06:59:00;21.60;99.90
16102;DHT22;56411;52.964;10.540;2022-08-14T07:01:27;21.70;99.90
16102;DHT22;56411;52.964;10.540;2022-08-14T07:04:13;21.80;99.90
16102;DHT22;56411;52.964;10.540;2022-08-14T07:06:57;21.90;99.90
16102;DHT22;56411;52.964;10.540;2022-08-14T07:09:24;22.00;99.90
16102;DHT22;56411;52.964;10.540;2022-08-14T07:11:51;22.00;99.90
16102;DHT22;56411;52.964;10.540;2022-08-14T07:14:18;22.10;99.90
16102;DHT22;56411;52.964;10.540;2022-08-14T07:16:45;22.20;99.90
16102;DHT22;56411;52.964;10.540;2022-08-14T07:19:15;22.30;99.90
16102;DHT22;56411;52.964;10.540;2022-08-14T07:21:42;22.40;99.90
16102;DHT22;56411;52.964;10.540;2022-08-14T07:24:09;22.50;99.90
16102;DHT22;56411;52.964;10.540;2022-08-14T07:26:36;22.60;99.90
16102;DHT22;56411;52.964;10.540;2022-08-14T07:29:03;22.70;99.90
16102;DHT22;56411;52.964;10.540;2022-08-14T07:31:31;22.80;99.90
16102;DHT22;56411;52.964;10.540;2022-08-14T07:33:58;22.90;99.90
16102;DHT22;56411;52.964;10.540;2022-08-14T07:36:26;23.00;99.90
16102;DHT22;56411;52.964;10.540;2022-08-14T07:38:53;23.10;99.90
16102;DHT22;56411;52.964;10.540;2022-08-14T07:41:20;23.10;99.90
16102;DHT22;56411;52.964;10.540;2022-08-14T07:43:47;23.20;99.90
16102;DHT22;56411;52.964;10.540;2022-08-14T07:46:14;23.20;99.90
16102;DHT22;56411;52.964;10.540;2022-08-14T07:48:42;23.30;99.90
16102;DHT22;56411;52.964;10.540;2022-08-14T07:51:09;23.40;99.90
16102;DHT22;56411;52.964;10.540;2022-08-14T07:53:38;23.60;99.90
16102;DHT22;56411;52.964;10.540;2022-08-14T07:56:05;23.60;99.90
16102;DHT22;56411;52.964;10.540;2022-08-14T07:58:32;23.70;99.90
16102;DHT22;56411;52.964;10.540;2022-08-14T08:00:59;23.80;99.90
16102;DHT22;56411;52.964;10.540;2022-08-14T08:03:27;23.80;99.90
16102;DHT22;56411;52.964;10.540;2022-08-14T08:05:55;23.90;99.90
16102;DHT22;56411;52.964;10.540;2022-08-14T08:08:24;24.00;99.90
16102;DHT22;56411;52.964;10.540;2022-08-14T08:10:55;24.10;99.90
16102;DHT22;56411;52.964;10.540;2022-08-14T08:13:22;24.20;99.90
16102;DHT22;56411;52.964;10.540;2022-08-14T08:15:52;24.30;99.90
16102;DHT22;56411;52.964;10.540;2022-08-14T08:18:22;24.40;99.90
16102;DHT22;56411;52.964;10.540;2022-08-14T08:20:51;24.50;99.90
16102;DHT22;56411;52.964;10.540;2022-08-14T08:23:21;24.60;99.90
16102;DHT22;56411;52.964;10.540;2022-08-14T08:25:49;24.80;99.90
16102;DHT22;56411;52.964;10.540;2022-08-14T08:28:19;24.90;99.90
16102;DHT22;56411;52.964;10.540;2022-08-14T08:30:48;24.90;99.90
16102;DHT22;56411;52.964;10.540;2022-08-14T08:33:16;25.00;99.90
16102;DHT22;56411;52.964;10.540;2022-08-14T08:35:45;25.00;99.90
16102;DHT22;56411;52.964;10.540;2022-08-14T08:38:14;25.10;99.90
16102;DHT22;56411;52.964;10.540;2022-08-14T08:40:44;25.20;99.90
16102;DHT22;56411;52.964;10.540;2022-08-14T08:43:20;25.30;99.90
16102;DHT22;56411;52.964;10.540;2022-08-14T08:45:53;25.40;99.90
16102;DHT22;56411;52.964;10.540;2022-08-14T08:48:21;25.50;99.90
16102;DHT22;56411;52.964;10.540;2022-08-14T08:50:48;25.60;99.90
16102;DHT22;56411;52.964;10.540;2022-08-14T08:53:15;25.70;99.90
16102;DHT22;56411;52.964;10.540;2022-08-14T08:55:43;25.70;99.90
16102;DHT22;56411;52.964;10.540;2022-08-14T08:58:12;25.70;99.90
16102;DHT22;56411;52.964;10.540;2022-08-14T09:00:41;25.80;99.90
16102;DHT22;56411;52.964;10.540;2022-08-14T09:03:10;25.80;99.90
16102;DHT22;56411;52.964;10.540;2022-08-14T09:05:48;25.90;99.90
16102;DHT22;56411;52.964;10.540;2022-08-14T09:08:16;26.00;99.90
16102;DHT22;56411;52.964;10.540;2022-08-14T09:10:44;26.10;99.90
16102;DHT22;56411;52.964;10.540;2022-08-14T09:13:13;26.20;99.90
16102;DHT22;56411;52.964;10.540;2022-08-14T09:15:47;26.40;99.90
16102;DHT22;56411;52.964;10.540;2022-08-14T09:18:17;26.60;99.90
16102;DHT22;56411;52.964;10.540;2022-08-14T09:20:46;26.60;99.90
16102;DHT22;56411;52.964;10.540;2022-08-14T09:23:14;26.80;99.90
16102;DHT22;56411;52.964;10.540;2022-08-14T09:25:43;26.90;99.90
16102;DHT22;56411;52.964;10.540;2022-08-14T09:28:11;27.00;99.90
16102;DHT22;56411;52.964;10.540;2022-08-14T09:30:40;27.10;99.90
16102;DHT22;56411;52.964;10.540;2022-08-14T09:33:30;27.40;99.90
16102;DHT22;56411;52.964;10.540;2022-08-14T09:39:00;27.90;99.90
16102;DHT22;56411;52.964;10.540;2022-08-14T09:41:36;28.10;99.90
16102;DHT22;56411;52.964;10.540;2022-08-14T09:44:06;28.40;99.90
16102;DHT22;56411;52.964;10.540;2022-08-14T09:46:34;28.60;99.90
16102;DHT22;56411;52.964;10.540;2022-08-14T09:49:04;28.60;99.90
16102;DHT22;56411;52.964;10.540;2022-08-14T09:51:32;28.80;99.90
16102;DHT22;56411;52.964;10.540;2022-08-14T09:54:04;29.10;99.90
16102;DHT22;56411;52.964;10.540;2022-08-14T09:56:44;29.10;99.90
16102;DHT22;56411;52.964;10.540;2022-08-14T09:59:13;29.10;99.90
16102;DHT22;56411;52.964;10.540;2022-08-14T10:01:43;29.10;99.90
16102;DHT22;56411;52.964;10.540;2022-08-14T10:04:21;29.10;99.90
16102;DHT22;56411;52.964;10.540;2022-08-14T10:06:49;29.30;99.90
16102;DHT22;56411;52.964;10.540;2022-08-14T10:09:17;29.60;99.90
16102;DHT22;56411;52.964;10.540;2022-08-14T10:11:54;29.70;99.90
16102;DHT22;56411;52.964;10.540;2022-08-14T10:14:24;29.60;99.90
16102;DHT22;56411;52.964;10.540;2022-08-14T10:16:54;29.60;99.90
16102;DHT22;56411;52.964;10.540;2022-08-14T10:19:24;29.50;99.90
16102;DHT22;56411;52.964;10.540;2022-08-14T10:22:01;29.40;99.90
16102;DHT22;56411;52.964;10.540;2022-08-14T10:24:37;29.30;99.90
16102;DHT22;56411;52.964;10.540;2022-08-14T10:27:13;29.20;99.90
16102;DHT22;56411;52.964;10.540;2022-08-14T10:29:46;29.10;99.90
16102;DHT22;56411;52.964;10.540;2022-08-14T10:32:14;29.10;99.90
16102;DHT22;56411;52.964;10.540;2022-08-14T10:34:45;29.20;99.90
16102;DHT22;56411;52.964;10.540;2022-08-14T10:37:14;29.10;99.90
16102;DHT22;56411;52.964;10.540;2022-08-14T10:39:44;29.00;99.90
16102;DHT22;56411;52.964;10.540;2022-08-14T10:42:14;28.90;99.90
16102;DHT22;56411;52.964;10.540;2022-08-14T10:44:43;28.90;99.90
16102;DHT22;56411;52.964;10.540;2022-08-14T10:47:13;28.90;99.90
16102;DHT22;56411;52.964;10.540;2022-08-14T10:49:42;29.00;99.90
16102;DHT22;56411;52.964;10.540;2022-08-14T10:52:19;29.20;99.90
16102;DHT22;56411;52.964;10.540;2022-08-14T10:54:49;29.70;99.90
16102;DHT22;56411;52.964;10.540;2022-08-14T10:57:18;30.40;99.90
16102;DHT22;56411;52.964;10.540;2022-08-14T10:59:50;31.30;99.90
16102;DHT22;56411;52.964;10.540;2022-08-14T11:02:25;32.10;99.90
16102;DHT22;56411;52.964;10.540;2022-08-14T11:05:05;32.60;99.90
16102;DHT22;56411;52.964;10.540;2022-08-14T11:07:34;33.10;99.90
16102;DHT22;56411;52.964;10.540;2022-08-14T11:10:04;33.30;99.90
16102;DHT22;56411;52.964;10.540;2022-08-14T11:12:39;33.70;99.90
16102;DHT22;56411;52.964;10.540;2022-08-14T11:15:10;34.40;99.90
16102;DHT22;56411;52.964;10.540;2022-08-14T11:17:37;34.50;99.90
16102;DHT22;56411;52.964;10.540;2022-08-14T11:20:08;34.00;99.90
16102;DHT22;56411;52.964;10.540;2022-08-14T11:22:37;34.30;99.90
16102;DHT22;56411;52.964;10.540;2022-08-14T11:25:08;34.20;99.60
16102;DHT22;56411;52.964;10.540;2022-08-14T11:27:37;33.70;99.90
16102;DHT22;56411;52.964;10.540;2022-08-14T11:30:07;33.80;99.90
16102;DHT22;56411;52.964;10.540;2022-08-14T11:32:34;34.00;99.90
16102;DHT22;56411;52.964;10.540;2022-08-14T11:35:02;34.60;98.80
16102;DHT22;56411;52.964;10.540;2022-08-14T11:37:31;35.20;97.30
16102;DHT22;56411;52.964;10.540;2022-08-14T11:39:59;36.00;95.40
16102;DHT22;56411;52.964;10.540;2022-08-14T11:42:28;35.70;94.90
16102;DHT22;56411;52.964;10.540;2022-08-14T11:44:57;35.60;94.40
16102;DHT22;56411;52.964;10.540;2022-08-14T11:47:25;36.00;94.60
16102;DHT22;56411;52.964;10.540;2022-08-14T11:49:52;36.40;93.10
16102;DHT22;56411;52.964;10.540;2022-08-14T11:52:19;36.40;92.60
16102;DHT22;56411;52.964;10.540;2022-08-14T11:54:56;36.10;92.60
16102;DHT22;56411;52.964;10.540;2022-08-14T11:57:23;36.60;91.20
16102;DHT22;56411;52.964;10.540;2022-08-14T12:00:00;36.90;91.30
16102;DHT22;56411;52.964;10.540;2022-08-14T12:02:28;37.10;87.70
16102;DHT22;56411;52.964;10.540;2022-08-14T12:04:55;36.90;86.60
16102;DHT22;56411;52.964;10.540;2022-08-14T12:07:22;36.90;86.90
16102;DHT22;56411;52.964;10.540;2022-08-14T12:09:54;37.30;88.30
16102;DHT22;56411;52.964;10.540;2022-08-14T12:12:23;38.10;85.00
16102;DHT22;56411;52.964;10.540;2022-08-14T12:14:53;37.90;83.80
16102;DHT22;56411;52.964;10.540;2022-08-14T12:17:21;38.20;84.70
16102;DHT22;56411;52.964;10.540;2022-08-14T12:19:51;37.70;82.20
16102;DHT22;56411;52.964;10.540;2022-08-14T12:22:19;37.40;82.60
16102;DHT22;56411;52.964;10.540;2022-08-14T12:24:58;37.20;82.20
16102;DHT22;56411;52.964;10.540;2022-08-14T12:27:37;37.50;82.30
16102;DHT22;56411;52.964;10.540;2022-08-14T12:30:06;38.20;82.00
16102;DHT22;56411;52.964;10.540;2022-08-14T12:32:40;38.80;80.30
16102;DHT22;56411;52.964;10.540;2022-08-14T12:35:08;39.20;80.50
16102;DHT22;56411;52.964;10.540;2022-08-14T12:37:37;39.30;77.80
16102;DHT22;56411;52.964;10.540;2022-08-14T12:40:10;39.80;77.20
16102;DHT22;56411;52.964;10.540;2022-08-14T12:42:38;39.70;75.60
16102;DHT22;56411;52.964;10.540;2022-08-14T12:45:06;39.10;76.30
16102;DHT22;56411;52.964;10.540;2022-08-14T12:47:36;38.30;76.60
16102;DHT22;56411;52.964;10.540;2022-08-14T12:50:04;38.10;78.20
16102;DHT22;56411;52.964;10.540;2022-08-14T12:52:33;38.50;77.60
16102;DHT22;56411;52.964;10.540;2022-08-14T12:55:03;37.70;77.80
16102;DHT22;56411;52.964;10.540;2022-08-14T12:57:36;37.40;79.50
16102;DHT22;56411;52.964;10.540;2022-08-14T13:00:08;37.40;79.40
16102;DHT22;56411;52.964;10.540;2022-08-14T13:02:38;37.50;79.50
16102;DHT22;56411;52.964;10.540;2022-08-14T13:05:07;38.00;76.50
16102;DHT22;56411;52.964;10.540;2022-08-14T13:07:35;38.40;77.40
16102;DHT22;56411;52.964;10.540;2022-08-14T13:10:07;37.90;77.20
16102;DHT22;56411;52.964;10.540;2022-08-14T13:12:37;36.90;78.20
16102;DHT22;56411;52.964;10.540;2022-08-14T13:15:06;36.20;79.60
16102;DHT22;56411;52.964;10.540;2022-08-14T13:17:39;35.90;80.50
16102;DHT22;56411;52.964;10.540;2022-08-14T13:20:08;35.30;80.80
16102;DHT22;56411;52.964;10.540;2022-08-14T13:22:37;34.90;82.00
16102;DHT22;56411;52.964;10.540;2022-08-14T13:25:07;34.60;82.80
16102;DHT22;56411;52.964;10.540;2022-08-14T13:27:37;34.50;83.10
16102;DHT22;56411;52.964;10.540;2022-08-14T13:30:06;34.80;84.00
16102;DHT22;56411;52.964;10.540;2022-08-14T13:32:36;35.30;81.90
16102;DHT22;56411;52.964;10.540;2022-08-14T13:35:06;36.30;81.20
16102;DHT22;56411;52.964;10.540;2022-08-14T13:37:33;37.20;78.70
16102;DHT22;56411;52.964;10.540;2022-08-14T13:40:01;37.60;78.00
16102;DHT22;56411;52.964;10.540;2022-08-14T13:42:28;37.90;75.80
16102;DHT22;56411;52.964;10.540;2022-08-14T13:44:58;38.10;76.30
16102;DHT22;56411;52.964;10.540;2022-08-14T13:47:27;38.50;75.80
16102;DHT22;56411;52.964;10.540;2022-08-14T13:49:57;38.40;74.10
16102;DHT22;56411;52.964;10.540;2022-08-14T13:52:29;38.40;73.90
16102;DHT22;56411;52.964;10.540;2022-08-14T13:55:03;37.70;74.50
16102;DHT22;56411;52.964;10.540;2022-08-14T13:57:31;37.20;74.60
16102;DHT22;56411;52.964;10.540;2022-08-14T14:00:07;36.40;76.00
16102;DHT22;56411;52.964;10.540;2022-08-14T14:02:37;36.00;77.30
16102;DHT22;56411;52.964;10.540;2022-08-14T14:05:05;35.50;78.00
16102;DHT22;56411;52.964;10.540;2022-08-14T14:07:34;35.40;77.40
16102;DHT22;56411;52.964;10.540;2022-08-14T14:10:05;35.10;78.20
16102;DHT22;56411;52.964;10.540;2022-08-14T14:12:33;34.60;79.30
16102;DHT22;56411;52.964;10.540;2022-08-14T14:15:05;34.60;79.50
16102;DHT22;56411;52.964;10.540;2022-08-14T14:17:34;34.60;78.70
16102;DHT22;56411;52.964;10.540;2022-08-14T14:20:04;34.40;80.10
16102;DHT22;56411;52.964;10.540;2022-08-14T14:22:33;34.30;80.40
16102;DHT22;56411;52.964;10.540;2022-08-14T14:25:03;34.60;80.80
16102;DHT22;56411;52.964;10.540;2022-08-14T14:27:30;34.70;80.40
16102;DHT22;56411;52.964;10.540;2022-08-14T14:30:00;34.70;79.50
16102;DHT22;56411;52.964;10.540;2022-08-14T14:32:30;34.70;80.10
16102;DHT22;56411;52.964;10.540;2022-08-14T14:34:59;34.80;80.60
16102;DHT22;56411;52.964;10.540;2022-08-14T14:37:29;34.90;83.00
16102;DHT22;56411;52.964;10.540;2022-08-14T14:39:57;34.90;80.60
16102;DHT22;56411;52.964;10.540;2022-08-14T14:42:25;34.90;80.20
16102;DHT22;56411;52.964;10.540;2022-08-14T14:45:02;35.10;80.60
16102;DHT22;56411;52.964;10.540;2022-08-14T14:47:31;35.30;81.80
16102;DHT22;56411;52.964;10.540;2022-08-14T14:50:00;35.80;78.90
16102;DHT22;56411;52.964;10.540;2022-08-14T14:52:28;35.70;78.90
16102;DHT22;56411;52.964;10.540;2022-08-14T14:54:56;35.60;78.30
16102;DHT22;56411;52.964;10.540;2022-08-14T14:57:25;35.40;78.00
16102;DHT22;56411;52.964;10.540;2022-08-14T14:59:52;35.20;79.50
16102;DHT22;56411;52.964;10.540;2022-08-14T15:02:28;35.20;77.40
16102;DHT22;56411;52.964;10.540;2022-08-14T15:04:59;35.20;79.00
16102;DHT22;56411;52.964;10.540;2022-08-14T15:07:26;35.20;79.70
16102;DHT22;56411;52.964;10.540;2022-08-14T15:09:53;35.30;79.80
16102;DHT22;56411;52.964;10.540;2022-08-14T15:12:21;35.50;78.80
16102;DHT22;56411;52.964;10.540;2022-08-14T15:14:48;35.70;78.20
16102;DHT22;56411;52.964;10.540;2022-08-14T15:17:15;36.00;77.50
16102;DHT22;56411;52.964;10.540;2022-08-14T15:19:42;36.50;77.40
16102;DHT22;56411;52.964;10.540;2022-08-14T15:22:11;36.50;76.70
16102;DHT22;56411;52.964;10.540;2022-08-14T15:24:39;36.70;77.10
16102;DHT22;56411;52.964;10.540;2022-08-14T15:27:06;36.40;76.20
16102;DHT22;56411;52.964;10.540;2022-08-14T15:29:33;36.10;76.90